sensor_id;sensor_type;location;lat;lon;timestamp;pressure;altitude;pressure_sealevel;temperature;humidity
42289;BME280;30230;47.520;19.016;2023-04-06T00:00:00;99230.16;;;0.88;57.74
42289;BME280;30230;47.520;19.016;2023-04-06T00:02:01;99226.16;;;0.84;58.70
42289;BME280;30230;47.520;19.016;2023-04-06T00:04:01;99230.31;;;0.86;57.59
42289;BME280;30230;47.520;19.016;2023-04-06T00:06:01;99242.63;;;0.77;59.14
42289;BME280;30230;47.520;19.016;2023-04-06T00:08:02;99241.38;;;0.82;59.12
42289;BME280;30230;47.520;19.016;2023-04-06T00:10:03;99244.75;;;0.74;59.78
42289;BME280;30230;47.520;19.016;2023-04-06T00:12:04;99235.53;;;0.68;59.36
42289;BME280;30230;47.520;19.016;2023-04-06T00:14:04;99231.91;;;0.69;59.90
42289;BME280;30230;47.520;19.016;2023-04-06T00:16:05;99218.34;;;0.63;60.18
42289;BME280;30230;47.520;19.016;2023-04-06T00:18:06;99224.34;;;0.65;59.36
42289;BME280;30230;47.520;19.016;2023-04-06T00:20:07;99218.34;;;0.63;59.24
42289;BME280;30230;47.520;19.016;2023-04-06T00:22:08;99205.75;;;0.55;59.17
42289;BME280;30230;47.520;19.016;2023-04-06T00:24:08;99223.66;;;0.63;59.11
42289;BME280;30230;47.520;19.016;2023-04-06T00:26:08;99224.50;;;0.63;59.94
42289;BME280;30230;47.520;19.016;2023-04-06T00:28:10;99226.00;;;0.66;59.46
42289;BME280;30230;47.520;19.016;2023-04-06T00:30:11;99205.59;;;0.57;59.59
42289;BME280;30230;47.520;19.016;2023-04-06T00:32:11;99219.59;;;0.68;59.00
42289;BME280;30230;47.520;19.016;2023-04-06T00:34:12;99205.88;;;0.54;59.99
42289;BME280;30230;47.520;19.016;2023-04-06T00:36:12;99210.06;;;0.56;59.47
42289;BME280;30230;47.520;19.016;2023-04-06T00:38:14;99213.16;;;0.51;59.00
42289;BME280;30230;47.520;19.016;2023-04-06T00:40:15;99208.56;;;0.54;59.65
42289;BME280;30230;47.520;19.016;2023-04-06T00:42:16;99211.22;;;0.54;60.21
42289;BME280;30230;47.520;19.016;2023-04-06T00:44:18;99202.97;;;0.47;60.87
42289;BME280;30230;47.520;19.016;2023-04-06T00:46:18;99201.97;;;0.48;60.66
42289;BME280;30230;47.520;19.016;2023-04-06T00:48:19;99202.81;;;0.48;61.07
42289;BME280;30230;47.520;19.016;2023-04-06T00:50:19;99205.63;;;0.47;60.10
42289;BME280;30230;47.520;19.016;2023-04-06T00:52:21;99194.28;;;0.45;59.74
42289;BME280;30230;47.520;19.016;2023-04-06T00:54:22;99205.31;;;0.50;59.43
42289;BME280;30230;47.520;19.016;2023-04-06T00:56:22;99204.34;;;0.51;59.31
42289;BME280;30230;47.520;19.016;2023-04-06T00:58:24;99208.69;;;0.52;59.98
42289;BME280;30230;47.520;19.016;2023-04-06T01:00:25;99202.25;;;0.55;60.92
42289;BME280;30230;47.520;19.016;2023-04-06T01:02:25;99179.88;;;0.47;58.72
42289;BME280;30230;47.520;19.016;2023-04-06T01:04:26;99200.28;;;0.57;58.49
42289;BME280;30230;47.520;19.016;2023-04-06T01:06:28;99205.75;;;0.55;58.56
42289;BME280;30230;47.520;19.016;2023-04-06T01:08:28;99192.34;;;0.47;58.37
42289;BME280;30230;47.520;19.016;2023-04-06T01:10:29;99214.28;;;0.59;57.90
42289;BME280;30230;47.520;19.016;2023-04-06T01:12:30;99194.00;;;0.48;57.92
42289;BME280;30230;47.520;19.016;2023-04-06T01:14:30;99194.00;;;0.48;57.47
42289;BME280;30230;47.520;19.016;2023-04-06T01:16:31;99194.84;;;0.48;57.41
42289;BME280;30230;47.520;19.016;2023-04-06T01:18:32;99212.59;;;0.58;58.25
42289;BME280;30230;47.520;19.016;2023-04-06T01:20:32;99200.31;;;0.47;59.54
42289;BME280;30230;47.520;19.016;2023-04-06T01:22:32;99209.38;;;0.54;58.30
42289;BME280;30230;47.520;19.016;2023-04-06T01:24:33;99208.25;;;0.57;58.78
42289;BME280;30230;47.520;19.016;2023-04-06T01:26:34;99205.59;;;0.57;58.68
42289;BME280;30230;47.520;19.016;2023-04-06T01:28:35;99206.41;;;0.76;55.37
42289;BME280;30230;47.520;19.016;2023-04-06T01:30:37;99210.47;;;0.71;56.79
42289;BME280;30230;47.520;19.016;2023-04-06T01:32:37;99182.81;;;0.64;56.35
42289;BME280;30230;47.520;19.016;2023-04-06T01:34:38;99196.06;;;0.73;55.06
42289;BME280;30230;47.520;19.016;2023-04-06T01:36:38;99201.41;;;0.73;55.83
42289;BME280;30230;47.520;19.016;2023-04-06T01:38:39;99188.38;;;0.70;54.83
42289;BME280;30230;47.520;19.016;2023-04-06T01:40:39;99201.22;;;0.85;54.74
42289;BME280;30230;47.520;19.016;2023-04-06T01:42:40;99196.19;;;0.82;54.24
42289;BME280;30230;47.520;19.016;2023-04-06T01:44:41;99208.06;;;0.87;55.43
42289;BME280;30230;47.520;19.016;2023-04-06T01:46:41;99196.19;;;0.82;55.25
42289;BME280;30230;47.520;19.016;2023-04-06T01:48:42;99195.09;;;0.74;55.57
42289;BME280;30230;47.520;19.016;2023-04-06T01:50:42;99194.91;;;0.86;54.28
42289;BME280;30230;47.520;19.016;2023-04-06T01:52:43;99199.81;;;0.90;54.44
42289;BME280;30230;47.520;19.016;2023-04-06T01:54:43;99196.91;;;0.84;54.78
42289;BME280;30230;47.520;19.016;2023-04-06T01:56:44;99204.31;;;0.80;54.18
42289;BME280;30230;47.520;19.016;2023-04-06T01:58:44;99185.53;;;0.82;53.36
42289;BME280;30230;47.520;19.016;2023-04-06T02:00:44;99194.09;;;0.85;54.73
42289;BME280;30230;47.520;19.016;2023-04-06T02:02:45;99182.47;;;0.76;54.76
42289;BME280;30230;47.520;19.016;2023-04-06T02:04:45;99185.44;;;0.83;54.84
42289;BME280;30230;47.520;19.016;2023-04-06T02:06:46;99187.94;;;0.85;54.60
42289;BME280;30230;47.520;19.016;2023-04-06T02:08:46;99185.38;;;0.93;55.12
42289;BME280;30230;47.520;19.016;2023-04-06T02:10:47;99172.78;;;0.95;53.60
42289;BME280;30230;47.520;19.016;2023-04-06T02:12:47;99174.06;;;0.91;54.00
42289;BME280;30230;47.520;19.016;2023-04-06T02:14:47;99176.72;;;0.91;54.21
42289;BME280;30230;47.520;19.016;2023-04-06T02:16:48;99179.22;;;0.92;53.13
42289;BME280;30230;47.520;19.016;2023-04-06T02:18:49;99179.38;;;0.91;53.03
42289;BME280;30230;47.520;19.016;2023-04-06T02:20:50;99166.09;;;0.81;54.42
42289;BME280;30230;47.520;19.016;2023-04-06T02:22:51;99175.47;;;0.85;54.98
42289;BME280;30230;47.520;19.016;2023-04-06T02:24:51;99167.78;;;0.82;55.87
42289;BME280;30230;47.520;19.016;2023-04-06T02:26:52;99163.59;;;0.80;54.33
42289;BME280;30230;47.520;19.016;2023-04-06T02:28:52;99162.19;;;0.75;55.32
42289;BME280;30230;47.520;19.016;2023-04-06T02:30:52;99160.53;;;0.74;54.23
42289;BME280;30230;47.520;19.016;2023-04-06T02:32:53;99160.94;;;0.80;54.65
42289;BME280;30230;47.520;19.016;2023-04-06T02:34:53;99166.84;;;0.73;54.19
42289;BME280;30230;47.520;19.016;2023-04-06T02:36:54;99165.28;;;0.71;54.81
42289;BME280;30230;47.520;19.016;2023-04-06T02:38:55;99161.78;;;0.70;55.21
42289;BME280;30230;47.520;19.016;2023-04-06T02:40:55;99165.16;;;0.72;55.31
42289;BME280;30230;47.520;19.016;2023-04-06T02:42:55;99163.47;;;0.71;55.11
42289;BME280;30230;47.520;19.016;2023-04-06T02:44:56;99160.28;;;0.68;54.33
42289;BME280;30230;47.520;19.016;2023-04-06T02:46:56;99161.78;;;0.70;55.78
42289;BME280;30230;47.520;19.016;2023-04-06T02:48:57;99151.88;;;0.72;55.61
42289;BME280;30230;47.520;19.016;2023-04-06T02:51:00;99156.31;;;0.72;54.84
42289;BME280;30230;47.520;19.016;2023-04-06T02:53:00;99149.75;;;0.66;54.65
42289;BME280;30230;47.520;19.016;2023-04-06T02:55:01;99154.53;;;0.72;54.10
42289;BME280;30230;47.520;19.016;2023-04-06T02:57:01;99148.25;;;0.64;56.00
42289;BME280;30230;47.520;19.016;2023-04-06T02:59:02;99151.31;;;0.69;54.81
42289;BME280;30230;47.520;19.016;2023-04-06T03:01:03;99151.16;;;0.70;55.48
42289;BME280;30230;47.520;19.016;2023-04-06T03:03:03;99150.47;;;0.68;54.91
42289;BME280;30230;47.520;19.016;2023-04-06T03:05:04;99151.13;;;0.80;54.83
42289;BME280;30230;47.520;19.016;2023-04-06T03:07:04;99149.31;;;0.81;54.12
42289;BME280;30230;47.520;19.016;2023-04-06T03:09:06;99130.88;;;0.69;54.74
42289;BME280;30230;47.520;19.016;2023-04-06T03:11:06;99147.81;;;0.78;53.90
42289;BME280;30230;47.520;19.016;2023-04-06T03:13:07;99150.16;;;0.81;53.92
42289;BME280;30230;47.520;19.016;2023-04-06T03:15:08;99148.28;;;0.91;51.56
42289;BME280;30230;47.520;19.016;2023-04-06T03:17:08;99146.78;;;0.89;53.63
42289;BME280;30230;47.520;19.016;2023-04-06T03:19:09;99149.00;;;0.93;52.94
42289;BME280;30230;47.520;19.016;2023-04-06T03:21:10;99141.16;;;0.92;51.75
42289;BME280;30230;47.520;19.016;2023-04-06T03:23:10;99147.28;;;1.02;52.64
42289;BME280;30230;47.520;19.016;2023-04-06T03:25:11;99151.16;;;1.08;52.79
42289;BME280;30230;47.520;19.016;2023-04-06T03:27:11;99149.66;;;1.05;52.17
42289;BME280;30230;47.520;19.016;2023-04-06T03:29:11;99148.41;;;0.99;51.94
42289;BME280;30230;47.520;19.016;2023-04-06T03:31:12;99148.28;;;1.01;52.42
42289;BME280;30230;47.520;19.016;2023-04-06T03:33:12;99149.25;;;1.00;52.34
42289;BME280;30230;47.520;19.016;2023-04-06T03:35:13;99147.00;;;1.05;52.04
42289;BME280;30230;47.520;19.016;2023-04-06T03:37:13;99151.91;;;1.00;52.45
42289;BME280;30230;47.520;19.016;2023-04-06T03:39:14;99153.47;;;0.93;52.06
42289;BME280;30230;47.520;19.016;2023-04-06T03:41:15;99159.66;;;0.93;51.56
42289;BME280;30230;47.520;19.016;2023-04-06T03:43:15;99142.31;;;0.80;53.17
42289;BME280;30230;47.520;19.016;2023-04-06T03:45:16;99152.56;;;0.74;53.04
42289;BME280;30230;47.520;19.016;2023-04-06T03:47:16;99144.00;;;0.71;53.80
42289;BME280;30230;47.520;19.016;2023-04-06T03:49:16;99144.56;;;0.74;53.51
42289;BME280;30230;47.520;19.016;2023-04-06T03:51:17;99151.28;;;0.78;53.65
42289;BME280;30230;47.520;19.016;2023-04-06T03:53:17;99139.28;;;0.65;53.44
42289;BME280;30230;47.520;19.016;2023-04-06T03:55:18;99143.75;;;0.64;54.97
42289;BME280;30230;47.520;19.016;2023-04-06T03:57:18;99144.84;;;0.71;53.28
42289;BME280;30230;47.520;19.016;2023-04-06T03:59:19;99142.50;;;0.68;53.96
42289;BME280;30230;47.520;19.016;2023-04-06T04:01:19;99138.44;;;0.64;55.27
42289;BME280;30230;47.520;19.016;2023-04-06T04:03:20;99141.50;;;0.69;54.02
42289;BME280;30230;47.520;19.016;2023-04-06T04:05:21;99144.44;;;0.66;55.39
42289;BME280;30230;47.520;19.016;2023-04-06T04:07:25;99132.59;;;0.51;55.01
42289;BME280;30230;47.520;19.016;2023-04-06T04:09:25;99137.34;;;0.57;54.79
42289;BME280;30230;47.520;19.016;2023-04-06T04:11:26;99135.50;;;0.67;53.74
42289;BME280;30230;47.520;19.016;2023-04-06T04:13:26;99131.44;;;0.73;52.89
42289;BME280;30230;47.520;19.016;2023-04-06T04:15:26;99119.41;;;0.69;53.11
42289;BME280;30230;47.520;19.016;2023-04-06T04:17:27;99126.03;;;0.92;51.12
42289;BME280;30230;47.520;19.016;2023-04-06T04:19:27;99127.88;;;0.82;52.87
42289;BME280;30230;47.520;19.016;2023-04-06T04:21:29;99132.53;;;0.80;53.11
42289;BME280;30230;47.520;19.016;2023-04-06T04:23:30;99129.63;;;0.73;53.10
42289;BME280;30230;47.520;19.016;2023-04-06T04:25:31;99114.81;;;0.61;54.76
42289;BME280;30230;47.520;19.016;2023-04-06T04:27:31;99135.63;;;0.75;54.33
42289;BME280;30230;47.520;19.016;2023-04-06T04:29:32;99128.91;;;0.71;54.38
42289;BME280;30230;47.520;19.016;2023-04-06T04:31:32;99133.50;;;0.79;53.18
42289;BME280;30230;47.520;19.016;2023-04-06T04:33:33;99128.88;;;0.81;52.70
42289;BME280;30230;47.520;19.016;2023-04-06T04:35:33;99125.97;;;0.74;53.69
42289;BME280;30230;47.520;19.016;2023-04-06T04:37:33;99131.88;;;0.68;53.95
42289;BME280;30230;47.520;19.016;2023-04-06T04:39:35;99128.22;;;0.69;54.46
42289;BME280;30230;47.520;19.016;2023-04-06T04:41:35;99123.59;;;0.71;53.20
42289;BME280;30230;47.520;19.016;2023-04-06T04:43:36;99121.75;;;0.82;52.90
42289;BME280;30230;47.520;19.016;2023-04-06T04:45:36;99124.63;;;0.98;51.51
42289;BME280;30230;47.520;19.016;2023-04-06T04:47:37;99119.00;;;1.01;50.72
42289;BME280;30230;47.520;19.016;2023-04-06T04:49:37;99110.34;;;0.99;50.83
42289;BME280;30230;47.520;19.016;2023-04-06T04:51:38;99096.47;;;1.05;50.19
42289;BME280;30230;47.520;19.016;2023-04-06T04:53:38;99112.09;;;1.08;50.06
42289;BME280;30230;47.520;19.016;2023-04-06T04:55:38;99082.19;;;1.06;50.38
42289;BME280;30230;47.520;19.016;2023-04-06T04:57:39;99125.63;;;1.24;50.65
42289;BME280;30230;47.520;19.016;2023-04-06T04:59:39;99122.88;;;1.16;51.20
42289;BME280;30230;47.520;19.016;2023-04-06T05:01:40;99106.66;;;1.10;51.62
42289;BME280;30230;47.520;19.016;2023-04-06T05:03:40;99123.47;;;1.10;51.22
42289;BME280;30230;47.520;19.016;2023-04-06T05:05:41;99125.25;;;1.19;51.21
42289;BME280;30230;47.520;19.016;2023-04-06T05:07:42;99112.00;;;1.10;51.81
42289;BME280;30230;47.520;19.016;2023-04-06T05:09:42;99107.19;;;1.13;51.47
42289;BME280;30230;47.520;19.016;2023-04-06T05:11:43;99117.16;;;1.11;52.16
42289;BME280;30230;47.520;19.016;2023-04-06T05:13:43;99100.94;;;1.04;51.53
42289;BME280;30230;47.520;19.016;2023-04-06T05:15:44;99110.84;;;1.12;51.80
42289;BME280;30230;47.520;19.016;2023-04-06T05:17:45;99106.22;;;1.14;51.32
42289;BME280;30230;47.520;19.016;2023-04-06T05:19:45;99100.72;;;1.25;50.95
42289;BME280;30230;47.520;19.016;2023-04-06T05:21:46;99095.13;;;1.19;50.93
42289;BME280;30230;47.520;19.016;2023-04-06T05:23:46;99093.72;;;1.24;50.91
42289;BME280;30230;47.520;19.016;2023-04-06T05:25:47;99085.34;;;1.19;51.17
42289;BME280;30230;47.520;19.016;2023-04-06T05:27:48;99080.31;;;1.16;51.34
42289;BME280;30230;47.520;19.016;2023-04-06T05:29:48;99083.19;;;1.23;50.62
42289;BME280;30230;47.520;19.016;2023-04-06T05:31:50;99083.25;;;1.13;51.01
42289;BME280;30230;47.520;19.016;2023-04-06T05:33:51;99082.75;;;1.27;51.37
42289;BME280;30230;47.520;19.016;2023-04-06T05:35:51;99077.41;;;1.10;50.59
42289;BME280;30230;47.520;19.016;2023-04-06T05:37:52;99084.47;;;1.19;51.77
42289;BME280;30230;47.520;19.016;2023-04-06T05:39:52;99070.16;;;1.29;52.59
42289;BME280;30230;47.520;19.016;2023-04-06T05:41:53;99061.25;;;1.21;53.12
42289;BME280;30230;47.520;19.016;2023-04-06T05:43:54;99080.47;;;1.33;52.25
42289;BME280;30230;47.520;19.016;2023-04-06T05:45:54;99082.53;;;1.39;52.41
42289;BME280;30230;47.520;19.016;2023-04-06T05:47:54;99073.97;;;1.45;53.38
42289;BME280;30230;47.520;19.016;2023-04-06T05:49:55;99061.97;;;1.59;51.54
42289;BME280;30230;47.520;19.016;2023-04-06T05:51:55;99066.31;;;1.77;50.54
42289;BME280;30230;47.520;19.016;2023-04-06T05:53:56;99057.63;;;1.75;49.79
42289;BME280;30230;47.520;19.016;2023-04-06T05:56:01;99057.25;;;1.70;49.27
42289;BME280;30230;47.520;19.016;2023-04-06T05:58:02;99061.72;;;1.70;50.14
42289;BME280;30230;47.520;19.016;2023-04-06T06:00:03;99064.78;;;1.75;49.61
42289;BME280;30230;47.520;19.016;2023-04-06T06:02:03;99067.56;;;1.91;49.32
42289;BME280;30230;47.520;19.016;2023-04-06T06:04:04;99064.78;;;1.93;48.79
42289;BME280;30230;47.520;19.016;2023-04-06T06:06:05;99049.81;;;1.92;48.52
42289;BME280;30230;47.520;19.016;2023-04-06T06:08:05;99051.13;;;1.96;47.45
42289;BME280;30230;47.520;19.016;2023-04-06T06:10:06;99038.69;;;1.78;47.41
42289;BME280;30230;47.520;19.016;2023-04-06T06:12:07;99060.91;;;1.87;48.27
42289;BME280;30230;47.520;19.016;2023-04-06T06:14:07;99046.06;;;1.85;48.07
42289;BME280;30230;47.520;19.016;2023-04-06T06:16:08;99052.06;;;2.04;47.53
42289;BME280;30230;47.520;19.016;2023-04-06T06:18:08;99058.53;;;2.02;47.72
42289;BME280;30230;47.520;19.016;2023-04-06T06:20:09;99047.88;;;2.02;48.22
42289;BME280;30230;47.520;19.016;2023-04-06T06:22:10;99053.25;;;2.10;46.60
42289;BME280;30230;47.520;19.016;2023-04-06T06:24:10;99057.28;;;2.14;48.51
42289;BME280;30230;47.520;19.016;2023-04-06T06:26:11;99062.38;;;2.25;47.51
42289;BME280;30230;47.520;19.016;2023-04-06T06:28:11;99055.38;;;2.24;47.08
42289;BME280;30230;47.520;19.016;2023-04-06T06:30:12;99062.91;;;2.29;47.65
42289;BME280;30230;47.520;19.016;2023-04-06T06:32:13;99041.41;;;2.30;45.49
42289;BME280;30230;47.520;19.016;2023-04-06T06:34:17;99059.41;;;2.28;46.89
42289;BME280;30230;47.520;19.016;2023-04-06T06:36:17;99051.72;;;2.25;47.07
42289;BME280;30230;47.520;19.016;2023-04-06T06:38:18;99039.75;;;2.29;46.41
42289;BME280;30230;47.520;19.016;2023-04-06T06:40:18;99027.78;;;2.33;46.72
42289;BME280;30230;47.520;19.016;2023-04-06T06:42:20;99044.97;;;2.39;46.96
42289;BME280;30230;47.520;19.016;2023-04-06T06:44:20;99036.03;;;2.48;46.80
42289;BME280;30230;47.520;19.016;2023-04-06T06:46:21;99052.13;;;2.65;47.19
42289;BME280;30230;47.520;19.016;2023-04-06T06:48:22;99052.41;;;2.53;47.45
42289;BME280;30230;47.520;19.016;2023-04-06T06:50:22;99049.13;;;2.68;47.10
42289;BME280;30230;47.520;19.016;2023-04-06T06:52:23;99057.22;;;2.84;46.18
42289;BME280;30230;47.520;19.016;2023-04-06T06:54:24;99045.09;;;2.90;46.37
42289;BME280;30230;47.520;19.016;2023-04-06T06:56:24;99047.22;;;2.86;45.84
42289;BME280;30230;47.520;19.016;2023-04-06T06:58:26;99026.69;;;2.78;46.55
42289;BME280;30230;47.520;19.016;2023-04-06T07:00:27;99043.78;;;3.02;45.33
42289;BME280;30230;47.520;19.016;2023-04-06T07:02:27;99039.97;;;3.04;46.51
42289;BME280;30230;47.520;19.016;2023-04-06T07:04:28;99044.94;;;2.99;46.04
42289;BME280;30230;47.520;19.016;2023-04-06T07:06:28;99046.16;;;3.13;44.92
42289;BME280;30230;47.520;19.016;2023-04-06T07:08:30;99047.81;;;3.06;46.15
42289;BME280;30230;47.520;19.016;2023-04-06T07:10:30;99051.97;;;3.00;45.94
42289;BME280;30230;47.520;19.016;2023-04-06T07:12:31;99053.03;;;3.16;49.08
42289;BME280;30230;47.520;19.016;2023-04-06T07:14:31;99050.50;;;3.14;45.63
42289;BME280;30230;47.520;19.016;2023-04-06T07:16:32;99023.81;;;3.14;45.40
42289;BME280;30230;47.520;19.016;2023-04-06T07:18:32;99040.69;;;3.23;45.34
42289;BME280;30230;47.520;19.016;2023-04-06T07:20:33;99028.22;;;3.31;45.23
42289;BME280;30230;47.520;19.016;2023-04-06T07:22:33;99031.72;;;3.40;44.36
42289;BME280;30230;47.520;19.016;2023-04-06T07:24:34;99017.88;;;3.45;44.52
42289;BME280;30230;47.520;19.016;2023-04-06T07:26:35;99035.28;;;3.57;44.20
42289;BME280;30230;47.520;19.016;2023-04-06T07:28:35;99023.44;;;3.68;43.98
42289;BME280;30230;47.520;19.016;2023-04-06T07:30:37;99041.31;;;3.67;44.28
42289;BME280;30230;47.520;19.016;2023-04-06T07:32:37;99038.47;;;3.69;43.72
42289;BME280;30230;47.520;19.016;2023-04-06T07:34:39;99033.31;;;3.83;44.66
42289;BME280;30230;47.520;19.016;2023-04-06T07:36:39;99030.69;;;5.11;56.33
42289;BME280;30230;47.520;19.016;2023-04-06T07:38:40;99007.44;;;5.65;58.75
42289;BME280;30230;47.520;19.016;2023-04-06T07:40:41;99016.56;;;6.40;49.33
42289;BME280;30230;47.520;19.016;2023-04-06T07:42:41;99023.34;;;6.65;43.55
42289;BME280;30230;47.520;19.016;2023-04-06T07:44:41;99025.72;;;6.45;40.66
42289;BME280;30230;47.520;19.016;2023-04-06T07:46:42;99013.84;;;6.10;39.77
42289;BME280;30230;47.520;19.016;2023-04-06T07:48:42;99024.78;;;5.55;38.14
42289;BME280;30230;47.520;19.016;2023-04-06T07:50:43;99021.69;;;5.04;39.95
42289;BME280;30230;47.520;19.016;2023-04-06T07:52:43;99013.63;;;4.73;41.12
42289;BME280;30230;47.520;19.016;2023-04-06T07:54:44;99026.66;;;4.76;40.88
42289;BME280;30230;47.520;19.016;2023-04-06T07:56:44;99021.81;;;4.71;41.05
42289;BME280;30230;47.520;19.016;2023-04-06T07:58:45;99030.22;;;4.52;42.60
42289;BME280;30230;47.520;19.016;2023-04-06T08:00:45;99024.53;;;4.55;43.26
42289;BME280;30230;47.520;19.016;2023-04-06T08:02:46;99020.50;;;4.67;42.76
42289;BME280;30230;47.520;19.016;2023-04-06T08:04:47;99028.53;;;4.59;42.79
42289;BME280;30230;47.520;19.016;2023-04-06T08:06:47;99022.03;;;4.61;42.50
42289;BME280;30230;47.520;19.016;2023-04-06T08:08:47;99027.66;;;4.75;42.08
42289;BME280;30230;47.520;19.016;2023-04-06T08:10:48;99015.41;;;4.80;42.03
42289;BME280;30230;47.520;19.016;2023-04-06T08:12:49;99016.72;;;4.92;41.93
42289;BME280;30230;47.520;19.016;2023-04-06T08:14:49;99019.56;;;4.91;41.36
42289;BME280;30230;47.520;19.016;2023-04-06T08:16:49;99015.72;;;4.93;42.43
42289;BME280;30230;47.520;19.016;2023-04-06T08:18:50;99018.06;;;4.88;43.11
42289;BME280;30230;47.520;19.016;2023-04-06T08:20:54;99021.56;;;4.97;42.91
42289;BME280;30230;47.520;19.016;2023-04-06T08:22:55;99010.94;;;4.73;41.41
42289;BME280;30230;47.520;19.016;2023-04-06T08:24:55;99011.78;;;4.65;43.04
42289;BME280;30230;47.520;19.016;2023-04-06T08:26:55;99017.13;;;4.65;43.62
42289;BME280;30230;47.520;19.016;2023-04-06T08:29:04;99009.56;;;4.85;42.75
42289;BME280;30230;47.520;19.016;2023-04-06T08:31:07;99005.41;;;4.82;41.55
42289;BME280;30230;47.520;19.016;2023-04-06T08:33:09;98995.41;;;4.68;42.50
42289;BME280;30230;47.520;19.016;2023-04-06T08:35:09;99003.06;;;4.79;42.10
42289;BME280;30230;47.520;19.016;2023-04-06T08:37:10;99002.03;;;4.88;42.65
42289;BME280;30230;47.520;19.016;2023-04-06T08:39:10;99002.50;;;4.92;42.42
42289;BME280;30230;47.520;19.016;2023-04-06T08:41:12;98987.91;;;5.03;41.41
42289;BME280;30230;47.520;19.016;2023-04-06T08:43:14;99002.53;;;5.23;42.55
42289;BME280;30230;47.520;19.016;2023-04-06T08:45:16;98995.72;;;5.43;42.09
42289;BME280;30230;47.520;19.016;2023-04-06T08:47:16;98988.16;;;5.70;39.74
42289;BME280;30230;47.520;19.016;2023-04-06T08:49:20;98980.72;;;5.80;40.37
42289;BME280;30230;47.520;19.016;2023-04-06T08:51:23;98990.50;;;5.96;40.63
42289;BME280;30230;47.520;19.016;2023-04-06T08:53:23;98983.97;;;6.28;40.26
42289;BME280;30230;47.520;19.016;2023-04-06T08:55:24;98981.59;;;6.33;40.35
42289;BME280;30230;47.520;19.016;2023-04-06T08:57:25;98982.34;;;6.57;39.42
42289;BME280;30230;47.520;19.016;2023-04-06T08:59:26;98977.97;;;6.56;37.68
42289;BME280;30230;47.520;19.016;2023-04-06T09:01:27;98980.78;;;6.47;38.69
42289;BME280;30230;47.520;19.016;2023-04-06T09:03:30;98975.56;;;6.46;38.54
42289;BME280;30230;47.520;19.016;2023-04-06T09:05:31;98977.63;;;6.59;39.18
42289;BME280;30230;47.520;19.016;2023-04-06T09:07:32;98976.94;;;6.86;37.69
42289;BME280;30230;47.520;19.016;2023-04-06T09:09:32;98978.72;;;6.94;39.27
42289;BME280;30230;47.520;19.016;2023-04-06T09:11:49;98977.59;;;7.03;37.25
42289;BME280;30230;47.520;19.016;2023-04-06T09:13:52;98976.56;;;7.04;37.70
42289;BME280;30230;47.520;19.016;2023-04-06T09:16:03;98975.00;;;6.95;36.75
42289;BME280;30230;47.520;19.016;2023-04-06T09:18:04;98982.97;;;6.88;37.66
42289;BME280;30230;47.520;19.016;2023-04-06T09:20:04;98969.66;;;6.65;36.94
42289;BME280;30230;47.520;19.016;2023-04-06T09:22:06;98969.78;;;6.57;37.76
42289;BME280;30230;47.520;19.016;2023-04-06T09:24:09;98966.88;;;6.59;38.52
42289;BME280;30230;47.520;19.016;2023-04-06T09:26:14;98965.13;;;6.66;36.97
42289;BME280;30230;47.520;19.016;2023-04-06T09:28:15;98968.06;;;6.71;38.79
42289;BME280;30230;47.520;19.016;2023-04-06T09:30:15;98964.75;;;6.69;37.75
42289;BME280;30230;47.520;19.016;2023-04-06T09:32:16;98963.19;;;6.74;38.45
42289;BME280;30230;47.520;19.016;2023-04-06T09:34:23;98929.31;;;6.59;37.12
42289;BME280;30230;47.520;19.016;2023-04-06T09:36:34;98955.31;;;6.73;38.97
42289;BME280;30230;47.520;19.016;2023-04-06T09:40:55;98947.31;;;6.94;37.33
42289;BME280;30230;47.520;19.016;2023-04-06T09:42:55;98950.22;;;6.93;36.15
42289;BME280;30230;47.520;19.016;2023-04-06T09:44:57;98954.25;;;7.03;37.62
42289;BME280;30230;47.520;19.016;2023-04-06T09:46:58;98933.31;;;7.14;36.81
42289;BME280;30230;47.520;19.016;2023-04-06T09:49:00;98942.50;;;7.04;36.94
42289;BME280;30230;47.520;19.016;2023-04-06T09:51:04;98935.34;;;7.33;38.14
42289;BME280;30230;47.520;19.016;2023-04-06T09:53:06;98939.22;;;7.45;36.48
42289;BME280;30230;47.520;19.016;2023-04-06T09:55:07;98943.19;;;7.71;35.46
42289;BME280;30230;47.520;19.016;2023-04-06T09:57:25;98940.38;;;7.86;35.69
42289;BME280;30230;47.520;19.016;2023-04-06T10:00:21;98937.69;;;8.07;36.82
42289;BME280;30230;47.520;19.016;2023-04-06T10:01:58;98938.09;;;8.10;35.88
42289;BME280;30230;47.520;19.016;2023-04-06T10:06:22;98938.34;;;8.16;34.47
42289;BME280;30230;47.520;19.016;2023-04-06T10:08:24;98938.78;;;8.19;35.06
42289;BME280;30230;47.520;19.016;2023-04-06T10:10:28;98930.75;;;8.26;33.66
42289;BME280;30230;47.520;19.016;2023-04-06T10:12:29;98924.53;;;8.19;33.46
42289;BME280;30230;47.520;19.016;2023-04-06T10:14:32;98925.38;;;8.26;34.15
42289;BME280;30230;47.520;19.016;2023-04-06T10:16:33;98912.38;;;8.29;35.97
42289;BME280;30230;47.520;19.016;2023-04-06T10:18:34;98930.09;;;8.45;33.71
42289;BME280;30230;47.520;19.016;2023-04-06T10:22:43;98909.44;;;9.00;33.83
42289;BME280;30230;47.520;19.016;2023-04-06T10:24:45;98922.03;;;8.93;32.93
42289;BME280;30230;47.520;19.016;2023-04-06T10:27:01;98919.91;;;8.75;32.40
42289;BME280;30230;47.520;19.016;2023-04-06T10:29:05;98913.59;;;8.55;33.08
42289;BME280;30230;47.520;19.016;2023-04-06T10:31:06;98901.72;;;8.43;33.28
42289;BME280;30230;47.520;19.016;2023-04-06T10:33:17;98905.38;;;8.70;32.77
42289;BME280;30230;47.520;19.016;2023-04-06T10:35:18;98899.06;;;8.49;33.93
42289;BME280;30230;47.520;19.016;2023-04-06T10:37:19;98894.97;;;8.60;33.94
42289;BME280;30230;47.520;19.016;2023-04-06T10:39:24;98904.47;;;8.56;33.80
42289;BME280;30230;47.520;19.016;2023-04-06T10:41:55;98902.59;;;8.56;33.52
42289;BME280;30230;47.520;19.016;2023-04-06T10:44:06;98900.56;;;8.58;32.93
42289;BME280;30230;47.520;19.016;2023-04-06T10:46:08;98849.69;;;8.35;34.09
42289;BME280;30230;47.520;19.016;2023-04-06T10:48:15;98893.91;;;8.54;31.98